Terminal Aerodrome Forecast
Issued by NWS Binghamton, NY

Home | Current Version | Previous Version | Text Only | Print | Product List | Glossary On
Versions: 1 2 3 4 5 6 7 8 9 10 11 12 13 14 15 16 17 18 19 20
000
FTUS41 KBGM 260500
TAFSYR
TAF
KSYR 260529Z 2606/2706 05004KT P6SM BKN200
     FM260900 06004KT P6SM OVC100
      TEMPO 2617/2620 2SM -SN OVC015
     FM262000 07008KT 1SM -SN OVC015=

USA.gov is the U.S. government's official web portal to all federal, state and local government web resources and services.